createdAt,value
2022-12-18T00:02:12.880Z,23.75
2022-12-18T00:05:00.203Z,25.70
2022-12-18T00:07:47.625Z,23.05
2022-12-18T00:10:35.051Z,22.30
2022-12-18T00:13:22.299Z,21.05
2022-12-18T00:16:12.494Z,19.65
2022-12-18T00:19:01.119Z,20.17
2022-12-18T00:21:48.305Z,21.13
2022-12-18T00:24:35.810Z,20.85
2022-12-18T00:27:22.983Z,21.65
2022-12-18T00:30:11.603Z,21.67
2022-12-18T00:32:59.013Z,21.50
2022-12-18T00:35:46.718Z,24.20
2022-12-18T00:38:35.515Z,25.17
2022-12-18T00:41:42.430Z,22.67
2022-12-18T00:44:29.556Z,24.45
2022-12-18T00:47:16.896Z,23.00
2022-12-18T00:50:04.753Z,21.70
2022-12-18T00:52:52.073Z,22.63
2022-12-18T00:55:41.107Z,21.20
2022-12-18T00:58:28.273Z,22.58
2022-12-18T01:01:16.391Z,21.55
2022-12-18T01:04:04.776Z,22.25
2022-12-18T01:06:52.330Z,23.50
2022-12-18T01:09:39.665Z,20.65
2022-12-18T01:12:26.986Z,20.15
2022-12-18T01:15:16.063Z,19.55
2022-12-18T01:18:03.205Z,22.60
2022-12-18T01:20:50.763Z,21.70
2022-12-18T01:23:39.220Z,21.80
2022-12-18T01:26:28.375Z,20.65
2022-12-18T01:29:16.010Z,22.17
2022-12-18T01:32:03.227Z,19.77
2022-12-18T01:34:50.417Z,20.70
2022-12-18T01:37:37.721Z,20.02
2022-12-18T01:40:25.342Z,23.85
2022-12-18T01:43:12.652Z,21.27
2022-12-18T01:46:01.086Z,22.35
2022-12-18T01:48:51.133Z,20.42
2022-12-18T01:51:38.457Z,20.33
2022-12-18T01:54:25.747Z,22.02
2022-12-18T01:57:13.093Z,21.42
2022-12-18T02:00:08.243Z,20.23
2022-12-18T02:02:56.266Z,22.00
2022-12-18T02:06:04.361Z,22.15
2022-12-18T02:09:00.444Z,21.00
2022-12-18T02:12:23.023Z,18.90
2022-12-18T02:15:20.413Z,20.20
2022-12-18T02:18:16.236Z,21.90
2022-12-18T02:21:22.346Z,20.50
2022-12-18T02:24:39.179Z,23.15
2022-12-18T02:27:28.980Z,20.63
2022-12-18T02:30:17.115Z,21.02
2022-12-18T02:33:08.065Z,20.80
2022-12-18T02:35:56.930Z,20.20
2022-12-18T02:38:46.798Z,21.83
2022-12-18T02:41:34.816Z,22.35
2022-12-18T02:44:22.411Z,21.40
2022-12-18T02:47:12.563Z,21.40
2022-12-18T02:49:59.925Z,20.58
2022-12-18T02:52:50.187Z,19.33
2022-12-18T02:55:49.029Z,22.00
2022-12-18T02:59:01.206Z,23.88
2022-12-18T03:02:01.124Z,19.65
2022-12-18T03:04:57.072Z,20.55
2022-12-18T03:07:57.954Z,23.30
2022-12-18T03:11:01.529Z,22.98
2022-12-18T03:13:58.846Z,21.80
2022-12-18T03:16:48.156Z,21.25
2022-12-18T03:19:36.675Z,24.13
2022-12-18T03:22:28.282Z,21.88
2022-12-18T03:25:17.538Z,21.83
2022-12-18T03:28:09.522Z,23.05
2022-12-18T03:30:59.998Z,23.45
2022-12-18T03:33:56.442Z,19.20
2022-12-18T03:36:43.945Z,22.70
2022-12-18T03:39:31.208Z,21.98
2022-12-18T03:42:42.119Z,18.80
2022-12-18T03:45:49.188Z,19.42
2022-12-18T03:48:45.643Z,20.42
2022-12-18T03:51:53.338Z,21.65
2022-12-18T03:54:42.227Z,22.95
2022-12-18T03:57:32.613Z,19.42
2022-12-18T04:00:20.672Z,20.15
2022-12-18T04:03:09.712Z,21.00
2022-12-18T04:06:00.089Z,20.00
2022-12-18T04:08:48.871Z,22.10
2022-12-18T04:11:36.155Z,21.40
2022-12-18T04:14:23.518Z,21.48
2022-12-18T04:17:10.656Z,22.30
2022-12-18T04:19:57.959Z,21.60
2022-12-18T04:22:45.415Z,19.90
2022-12-18T04:25:33.474Z,21.90
2022-12-18T04:28:20.827Z,19.55
2022-12-18T04:31:09.066Z,19.35
2022-12-18T04:33:56.282Z,21.88
2022-12-18T04:36:43.417Z,19.35
2022-12-18T04:39:30.787Z,20.40
2022-12-18T04:42:17.961Z,20.83
2022-12-18T04:45:06.161Z,20.73
2022-12-18T04:47:53.561Z,21.30
2022-12-18T04:50:40.690Z,20.23
2022-12-18T04:53:28.542Z,17.60
2022-12-18T04:56:16.835Z,22.92
2022-12-18T04:59:03.972Z,19.02
2022-12-18T05:01:51.214Z,19.77
2022-12-18T05:04:38.555Z,19.67
2022-12-18T05:07:26.088Z,18.15
2022-12-18T05:10:13.467Z,19.25
2022-12-18T05:13:01.195Z,19.52
2022-12-18T05:15:53.682Z,21.45
2022-12-18T05:18:41.128Z,20.83
2022-12-18T05:21:28.315Z,19.50
2022-12-18T05:24:15.564Z,23.63
2022-12-18T05:27:03.383Z,19.42
2022-12-18T05:29:50.519Z,21.05
2022-12-18T05:32:37.750Z,19.25
2022-12-18T05:35:25.060Z,21.77
2022-12-18T05:38:12.277Z,20.48
2022-12-18T05:40:59.777Z,21.60
2022-12-18T05:43:47.076Z,19.58
2022-12-18T05:46:34.569Z,21.52
2022-12-18T05:49:22.271Z,20.00
2022-12-18T05:52:09.986Z,18.10
2022-12-18T05:54:57.451Z,21.08
2022-12-18T05:57:44.568Z,20.63
2022-12-18T06:00:33.916Z,20.70
2022-12-18T06:03:21.136Z,17.95
2022-12-18T06:06:34.696Z,19.50
2022-12-18T06:09:22.495Z,17.92
2022-12-18T06:12:09.928Z,18.42
2022-12-18T06:14:57.422Z,19.05
2022-12-18T06:17:44.567Z,16.25
2022-12-18T06:20:33.819Z,20.75
2022-12-18T06:23:21.234Z,19.08
2022-12-18T06:26:10.918Z,20.83
2022-12-18T06:28:58.124Z,17.98
2022-12-18T06:31:46.163Z,20.17
2022-12-18T06:34:34.003Z,19.02
2022-12-18T06:37:21.221Z,19.48
2022-12-18T06:40:09.021Z,17.05
2022-12-18T06:42:56.487Z,18.80
2022-12-18T06:45:44.121Z,17.23
2022-12-18T06:48:31.605Z,21.30
2022-12-18T06:51:20.838Z,20.40
2022-12-18T06:54:08.450Z,17.92
2022-12-18T06:56:58.379Z,18.80
2022-12-18T06:59:45.707Z,16.80
2022-12-18T07:02:33.145Z,16.55
2022-12-18T07:05:20.615Z,17.77
2022-12-18T07:08:07.820Z,17.63
2022-12-18T07:10:56.452Z,18.55
2022-12-18T07:13:44.217Z,16.85
2022-12-18T07:16:31.763Z,15.65
2022-12-18T07:19:18.965Z,16.13
2022-12-18T07:22:06.392Z,18.73
2022-12-18T07:24:54.106Z,16.65
2022-12-18T07:27:41.262Z,19.17
2022-12-18T07:30:28.405Z,17.98
2022-12-18T07:33:15.888Z,17.25
2022-12-18T07:36:05.413Z,20.17
2022-12-18T07:38:54.067Z,17.75
2022-12-18T07:41:47.366Z,19.75
2022-12-18T07:44:34.802Z,17.35
2022-12-18T07:47:21.951Z,16.98
2022-12-18T07:50:09.917Z,16.25
2022-12-18T07:52:57.065Z,19.27
2022-12-18T07:56:17.845Z,19.27
2022-12-18T07:58:51.590Z,18.48
2022-12-18T08:01:38.789Z,21.52
2022-12-18T08:04:26.977Z,16.73
2022-12-18T08:07:14.320Z,15.80
2022-12-18T08:10:01.487Z,17.15
2022-12-18T08:12:52.639Z,17.02
2022-12-18T08:15:39.751Z,17.30
2022-12-18T08:18:27.042Z,17.50
2022-12-18T08:21:16.456Z,14.60
2022-12-18T08:24:04.047Z,18.05
2022-12-18T08:27:06.773Z,17.02
2022-12-18T08:29:59.419Z,16.30
2022-12-18T08:32:46.594Z,21.63
2022-12-18T08:35:42.480Z,18.80
2022-12-18T08:38:33.998Z,17.15
2022-12-18T08:41:21.565Z,16.17
2022-12-18T08:44:27.552Z,16.13
2022-12-18T08:47:14.944Z,17.15
2022-12-18T08:50:02.099Z,17.70
2022-12-18T08:52:49.241Z,16.27
2022-12-18T08:55:36.498Z,18.50
2022-12-18T08:58:23.669Z,17.95
2022-12-18T09:01:13.603Z,16.00
2022-12-18T09:04:00.843Z,19.27
2022-12-18T09:06:47.985Z,17.42
2022-12-18T09:09:35.378Z,17.10
2022-12-18T09:12:22.578Z,16.45
2022-12-18T09:15:10.085Z,16.83
2022-12-18T09:17:57.183Z,16.30
2022-12-18T09:20:44.927Z,15.82
2022-12-18T09:23:32.051Z,15.30
2022-12-18T09:26:23.754Z,17.27
2022-12-18T09:29:10.903Z,16.13
2022-12-18T09:31:58.627Z,18.42
2022-12-18T09:34:46.015Z,17.10
2022-12-18T09:37:33.284Z,16.50
2022-12-18T09:40:26.738Z,17.60
2022-12-18T09:43:23.433Z,16.92
2022-12-18T09:46:20.370Z,21.63
2022-12-18T09:49:14.124Z,23.00
2022-12-18T09:52:20.361Z,20.50
2022-12-18T09:55:37.127Z,18.57
2022-12-18T09:58:46.003Z,18.47
2022-12-18T10:01:43.187Z,16.70
2022-12-18T10:04:33.042Z,16.00
2022-12-18T10:07:45.717Z,19.70
2022-12-18T10:10:44.350Z,20.73
2022-12-18T10:13:40.977Z,18.60
2022-12-18T10:16:37.201Z,18.30
2022-12-18T10:19:41.847Z,19.17
2022-12-18T10:22:47.736Z,16.70
2022-12-18T10:26:05.479Z,16.57
2022-12-18T10:28:54.142Z,17.97
2022-12-18T10:31:41.433Z,17.00
2022-12-18T10:34:28.573Z,15.93
2022-12-18T10:37:21.207Z,15.10
2022-12-18T10:40:22.410Z,16.23
2022-12-18T10:43:15.559Z,17.07
2022-12-18T10:46:12.983Z,18.50
2022-12-18T10:49:00.210Z,16.77
2022-12-18T10:51:48.020Z,18.07
2022-12-18T10:54:36.440Z,21.50
2022-12-18T10:57:37.778Z,18.40
2022-12-18T11:00:30.949Z,17.67
2022-12-18T11:03:39.477Z,18.77
2022-12-18T11:06:27.321Z,17.10
2022-12-18T11:09:23.053Z,17.60
2022-12-18T11:13:22.157Z,18.70
2022-12-18T11:15:50.340Z,18.50
2022-12-18T11:18:29.136Z,17.90
2022-12-18T11:21:15.755Z,18.83
2022-12-18T11:24:03.063Z,16.73
2022-12-18T11:26:56.260Z,17.53
2022-12-18T11:29:47.022Z,18.00
2022-12-18T11:32:44.766Z,17.70
2022-12-18T11:35:22.758Z,18.30
2022-12-18T11:37:58.989Z,17.20
2022-12-18T11:40:41.651Z,17.50
2022-12-18T11:43:34.397Z,16.30
2022-12-18T11:46:19.981Z,17.37
2022-12-18T11:49:43.896Z,15.43
2022-12-18T11:52:16.303Z,17.97
2022-12-18T11:54:43.339Z,22.53
2022-12-18T11:57:36.449Z,17.13
2022-12-18T12:00:10.186Z,19.00
2022-12-18T12:03:11.106Z,16.93
2022-12-18T12:06:04.437Z,14.60
2022-12-18T12:08:43.393Z,16.60
2022-12-18T12:11:28.643Z,16.70
2022-12-18T12:14:04.891Z,17.77
2022-12-18T12:16:40.988Z,16.70
2022-12-18T12:19:17.222Z,18.60
2022-12-18T12:21:58.006Z,18.07
2022-12-18T12:24:28.178Z,16.33
2022-12-18T12:27:13.345Z,20.30
2022-12-18T12:30:01.525Z,20.10
2022-12-18T12:33:03.971Z,19.00
2022-12-18T12:35:49.826Z,18.50
2022-12-18T12:38:25.460Z,15.97
2022-12-18T12:41:07.017Z,16.30
2022-12-18T12:43:33.835Z,15.60
2022-12-18T12:46:12.889Z,17.00
2022-12-18T12:48:50.285Z,17.17
2022-12-18T12:51:24.976Z,16.20
2022-12-18T12:53:54.650Z,16.10
2022-12-18T12:56:23.104Z,16.00
2022-12-18T12:58:56.054Z,17.03
2022-12-18T13:01:32.594Z,17.17
2022-12-18T13:04:21.771Z,17.33
2022-12-18T13:07:11.503Z,15.33
2022-12-18T13:10:13.611Z,14.53
2022-12-18T13:13:01.896Z,15.70
2022-12-18T13:15:46.053Z,16.20
2022-12-18T13:18:23.652Z,16.63
2022-12-18T13:21:02.963Z,16.40
2022-12-18T13:23:37.429Z,15.97
2022-12-18T13:26:07.632Z,15.53
2022-12-18T13:28:47.091Z,14.57
2022-12-18T13:31:33.918Z,14.70
2022-12-18T13:34:31.194Z,15.13
2022-12-18T13:37:34.013Z,16.87
2022-12-18T13:40:01.214Z,14.23
2022-12-18T13:42:49.526Z,17.20
2022-12-18T13:45:50.662Z,13.93
2022-12-18T13:48:23.731Z,13.40
2022-12-18T13:50:59.299Z,12.10
2022-12-18T13:53:31.336Z,13.10
2022-12-18T13:55:59.203Z,12.17
2022-12-18T13:58:26.093Z,13.47
2022-12-18T14:00:53.272Z,11.80
2022-12-18T14:03:28.777Z,11.90
2022-12-18T14:06:10.057Z,12.40
2022-12-18T14:08:42.009Z,12.40
2022-12-18T14:11:23.780Z,14.60
2022-12-18T14:13:53.544Z,12.90
2022-12-18T14:16:20.924Z,13.20
2022-12-18T14:19:00.121Z,12.10
2022-12-18T14:21:46.145Z,11.27
2022-12-18T14:24:19.722Z,12.63
2022-12-18T14:26:51.066Z,13.90
2022-12-18T14:29:27.906Z,12.13
2022-12-18T14:32:17.812Z,13.67
2022-12-18T14:34:54.609Z,13.90
2022-12-18T14:37:27.319Z,12.40
2022-12-18T14:39:55.388Z,11.63
2022-12-18T14:42:22.605Z,10.57
2022-12-18T14:45:12.424Z,11.57
2022-12-18T14:47:36.746Z,11.70
2022-12-18T14:50:03.817Z,11.33
2022-12-18T14:52:33.130Z,12.10
2022-12-18T14:55:00.112Z,13.03
2022-12-18T14:57:33.593Z,13.03
2022-12-18T15:00:08.218Z,11.60
2022-12-18T15:02:37.088Z,13.43
2022-12-18T15:05:29.878Z,12.83
2022-12-18T15:07:59.637Z,11.87
2022-12-18T15:10:33.207Z,12.73
2022-12-18T15:13:01.374Z,13.67
2022-12-18T15:15:37.449Z,13.63
2022-12-18T15:18:04.121Z,13.00
2022-12-18T15:20:40.206Z,12.97
2022-12-18T15:23:33.989Z,14.07
2022-12-18T15:26:06.812Z,12.87
2022-12-18T15:28:56.968Z,12.80
2022-12-18T15:31:37.849Z,12.70
2022-12-18T15:34:23.797Z,12.53
2022-12-18T15:36:52.074Z,12.87
2022-12-18T15:39:18.778Z,12.47
2022-12-18T15:42:05.507Z,12.60
2022-12-18T15:44:32.389Z,12.60
2022-12-18T15:46:59.244Z,13.83
2022-12-18T15:49:26.087Z,13.17
2022-12-18T15:51:57.460Z,16.13
2022-12-18T15:54:44.179Z,14.67
2022-12-18T15:57:26.579Z,13.53
2022-12-18T15:59:56.638Z,14.23
2022-12-18T16:02:24.111Z,14.20
2022-12-18T16:04:54.876Z,13.77
2022-12-18T16:07:25.627Z,15.90
2022-12-18T16:09:52.782Z,14.50
2022-12-18T16:12:23.377Z,14.73
2022-12-18T16:14:50.145Z,13.30
2022-12-18T16:17:17.272Z,15.10
2022-12-18T16:19:44.110Z,15.63
2022-12-18T16:22:23.059Z,14.07
2022-12-18T16:24:50.984Z,14.80
2022-12-18T16:27:17.748Z,14.33
2022-12-18T16:29:44.786Z,13.80
2022-12-18T16:32:18.625Z,14.43
2022-12-18T16:34:46.268Z,15.30
2022-12-18T16:37:14.949Z,17.03
2022-12-18T16:39:42.428Z,14.50
2022-12-18T16:42:17.329Z,14.57
2022-12-18T16:44:44.551Z,15.70
2022-12-18T16:47:14.390Z,16.80
2022-12-18T16:49:42.689Z,16.83
2022-12-18T16:52:09.351Z,16.27
2022-12-18T16:54:36.588Z,17.10
2022-12-18T16:57:05.282Z,17.03
2022-12-18T16:59:31.991Z,16.80
2022-12-18T17:01:58.875Z,15.60
2022-12-18T17:04:25.582Z,15.60
2022-12-18T17:06:53.773Z,17.93
2022-12-18T17:09:25.141Z,17.90
2022-12-18T17:11:53.349Z,18.57
2022-12-18T17:14:23.104Z,17.80
2022-12-18T17:17:07.354Z,17.37
2022-12-18T17:19:36.672Z,17.80
2022-12-18T17:22:04.577Z,19.90
2022-12-18T17:24:34.745Z,18.03
2022-12-18T17:27:02.326Z,16.70
2022-12-18T17:29:29.084Z,18.60
2022-12-18T17:31:55.731Z,17.53
2022-12-18T17:34:24.305Z,18.67
2022-12-18T17:36:51.053Z,17.77
2022-12-18T17:39:20.434Z,17.67
2022-12-18T17:41:48.778Z,17.90
2022-12-18T17:44:17.061Z,16.23
2022-12-18T17:46:44.336Z,16.13
2022-12-18T17:49:11.505Z,15.73
2022-12-18T17:51:38.220Z,16.10
2022-12-18T17:54:05.360Z,17.50
2022-12-18T17:56:32.937Z,18.30
2022-12-18T17:59:00.071Z,16.97
2022-12-18T18:01:26.920Z,16.73
2022-12-18T18:03:56.156Z,17.67
2022-12-18T18:06:23.914Z,19.70
2022-12-18T18:08:50.869Z,17.23
2022-12-18T18:11:38.156Z,19.07
2022-12-18T18:14:08.429Z,19.40
2022-12-18T18:16:41.398Z,18.63
2022-12-18T18:19:10.992Z,19.63
2022-12-18T18:21:42.627Z,17.73
2022-12-18T18:24:11.660Z,20.37
2022-12-18T18:26:39.858Z,17.20
2022-12-18T18:29:09.503Z,16.97
2022-12-18T18:31:41.031Z,17.23
2022-12-18T18:34:08.945Z,18.33
2022-12-18T18:36:35.671Z,20.20
2022-12-18T18:39:02.358Z,16.73
2022-12-18T18:41:30.444Z,19.47
2022-12-18T18:43:58.297Z,18.60
2022-12-18T18:46:25.796Z,19.93
2022-12-18T18:48:52.907Z,19.10
2022-12-18T18:51:21.381Z,20.43
2022-12-18T18:53:51.130Z,18.87
2022-12-18T18:56:56.550Z,20.37
2022-12-18T18:59:06.854Z,18.67
2022-12-18T19:01:33.875Z,19.00
2022-12-18T19:04:02.271Z,18.00
2022-12-18T19:06:29.923Z,20.70
2022-12-18T19:08:59.038Z,21.80
2022-12-18T19:11:45.676Z,20.47
2022-12-18T19:14:14.469Z,21.63
2022-12-18T19:16:42.247Z,23.30
2022-12-18T19:19:09.451Z,19.80
2022-12-18T19:21:38.039Z,20.33
2022-12-18T19:24:05.871Z,19.10
2022-12-18T19:26:32.613Z,21.63
2022-12-18T19:29:07.582Z,19.63
2022-12-18T19:31:37.003Z,20.50
2022-12-18T19:34:07.346Z,20.40
2022-12-18T19:36:38.011Z,26.00
2022-12-18T19:39:13.492Z,20.77
2022-12-18T19:41:41.354Z,24.30
2022-12-18T19:44:09.934Z,18.47
2022-12-18T19:46:37.154Z,20.23
2022-12-18T19:49:10.407Z,20.10
2022-12-18T19:51:37.027Z,18.77
2022-12-18T19:54:04.518Z,20.17
2022-12-18T19:56:33.763Z,21.03
2022-12-18T19:59:01.064Z,20.30
2022-12-18T20:01:29.230Z,20.30
2022-12-18T20:03:57.445Z,19.17
2022-12-18T20:06:27.982Z,20.83
2022-12-18T20:09:00.279Z,19.90
2022-12-18T20:11:32.591Z,21.80
2022-12-18T20:14:02.709Z,21.33
2022-12-18T20:16:30.208Z,20.97
2022-12-18T20:18:58.426Z,20.60
2022-12-18T20:21:25.939Z,20.50
2022-12-18T20:23:53.130Z,20.83
2022-12-18T20:26:19.967Z,20.67
2022-12-18T20:28:46.910Z,21.03
2022-12-18T20:31:14.430Z,21.00
2022-12-18T20:33:42.608Z,20.07
2022-12-18T20:36:17.178Z,21.33
2022-12-18T20:38:48.375Z,24.57
2022-12-18T20:41:19.900Z,20.93
2022-12-18T20:43:47.889Z,20.17
2022-12-18T20:46:16.311Z,22.60
2022-12-18T20:48:44.822Z,21.17
2022-12-18T20:51:15.333Z,24.00
2022-12-18T20:53:42.961Z,22.23
2022-12-18T20:56:13.197Z,20.43
2022-12-18T20:58:44.830Z,20.43
2022-12-18T21:01:17.747Z,19.57
2022-12-18T21:03:46.679Z,19.23
2022-12-18T21:06:15.424Z,20.70
2022-12-18T21:08:43.079Z,19.87
2022-12-18T21:11:32.725Z,18.83
2022-12-18T21:14:00.340Z,20.80
2022-12-18T21:16:27.304Z,21.53
2022-12-18T21:18:55.734Z,18.93
2022-12-18T21:21:26.533Z,21.23
2022-12-18T21:23:54.676Z,18.53
2022-12-18T21:26:32.066Z,21.93
2022-12-18T21:29:01.886Z,19.67
2022-12-18T21:31:31.960Z,21.50
2022-12-18T21:34:02.474Z,19.60
2022-12-18T21:36:30.708Z,19.40
2022-12-18T21:38:59.143Z,20.97
2022-12-18T21:41:45.466Z,17.83
2022-12-18T21:44:18.040Z,20.30
2022-12-18T21:46:52.964Z,22.00
2022-12-18T21:49:22.960Z,20.60
2022-12-18T21:51:52.798Z,19.17
2022-12-18T21:54:20.608Z,21.27
2022-12-18T21:56:56.285Z,19.93
2022-12-18T21:59:43.374Z,18.33
2022-12-18T22:02:16.428Z,20.63
2022-12-18T22:04:45.133Z,20.23
2022-12-18T22:07:12.684Z,22.47
2022-12-18T22:09:39.635Z,21.20
2022-12-18T22:12:08.915Z,20.93
2022-12-18T22:14:36.330Z,20.50
2022-12-18T22:17:03.421Z,22.17
2022-12-18T22:19:31.040Z,21.80
2022-12-18T22:21:58.005Z,22.20
2022-12-18T22:24:26.640Z,21.57
2022-12-18T22:27:02.029Z,21.20
2022-12-18T22:29:47.652Z,20.70
2022-12-18T22:32:17.085Z,19.60
2022-12-18T22:35:01.732Z,21.83
2022-12-18T22:37:32.046Z,19.00
2022-12-18T22:39:59.003Z,21.47
2022-12-18T22:42:29.712Z,22.20
2022-12-18T22:44:57.000Z,19.40
2022-12-18T22:47:29.256Z,20.93
2022-12-18T22:49:56.966Z,20.27
2022-12-18T22:52:24.864Z,19.90
2022-12-18T22:54:53.571Z,20.00
2022-12-18T22:57:22.044Z,18.97
2022-12-18T22:59:52.214Z,20.80
2022-12-18T23:02:19.753Z,19.37
2022-12-18T23:04:47.749Z,21.47
2022-12-18T23:07:15.148Z,21.17
2022-12-18T23:09:42.441Z,19.33
2022-12-18T23:12:20.153Z,18.43
2022-12-18T23:14:47.495Z,19.07
2022-12-18T23:17:14.391Z,20.00
2022-12-18T23:19:47.109Z,20.37
2022-12-18T23:22:15.605Z,19.40
2022-12-18T23:24:42.705Z,19.40
2022-12-18T23:27:11.670Z,20.67
2022-12-18T23:29:39.859Z,20.00
2022-12-18T23:32:07.154Z,20.67
2022-12-18T23:34:34.102Z,19.63
2022-12-18T23:37:01.329Z,20.17
2022-12-18T23:39:29.538Z,20.87
2022-12-18T23:42:00.981Z,19.23
2022-12-18T23:44:28.174Z,19.87
2022-12-18T23:46:55.917Z,20.90
2022-12-18T23:49:22.979Z,19.43
2022-12-18T23:51:50.186Z,20.50
2022-12-18T23:54:17.125Z,20.20
2022-12-18T23:56:49.726Z,20.20
2022-12-18T23:59:19.338Z,19.83
